sensor_id;sensor_type;location;lat;lon;timestamp;pressure;altitude;pressure_sealevel;temperature;humidity
69842;BME280;57138;51.326;-0.068;2024-01-11T00:02:10;101240.91;;;-0.56;84.76
69842;BME280;57138;51.326;-0.068;2024-01-11T00:04:35;101257.31;;;-0.52;84.78
69842;BME280;57138;51.326;-0.068;2024-01-11T00:07:00;101258.34;;;-0.55;85.82
69842;BME280;57138;51.326;-0.068;2024-01-11T00:09:26;101243.81;;;-0.61;85.50
69842;BME280;57138;51.326;-0.068;2024-01-11T00:11:51;101226.25;;;-0.75;85.19
69842;BME280;57138;51.326;-0.068;2024-01-11T00:14:17;101274.88;;;-0.53;85.49
69842;BME280;57138;51.326;-0.068;2024-01-11T00:16:42;101243.47;;;-0.70;85.68
69842;BME280;57138;51.326;-0.068;2024-01-11T00:19:08;101240.47;;;-0.79;85.71
69842;BME280;57138;51.326;-0.068;2024-01-11T00:21:34;101282.44;;;-0.63;85.38
69842;BME280;57138;51.326;-0.068;2024-01-11T00:24:00;101282.69;;;-0.67;85.16
69842;BME280;57138;51.326;-0.068;2024-01-11T00:26:25;101239.66;;;-0.95;85.20
69842;BME280;57138;51.326;-0.068;2024-01-11T00:28:50;101261.84;;;-0.85;86.02
69842;BME280;57138;51.326;-0.068;2024-01-11T00:31:16;101221.78;;;-1.19;85.85
69842;BME280;57138;51.326;-0.068;2024-01-11T00:33:41;101273.22;;;-1.00;86.40
69842;BME280;57138;51.326;-0.068;2024-01-11T00:36:07;101264.41;;;-0.99;86.61
69842;BME280;57138;51.326;-0.068;2024-01-11T00:38:32;101252.75;;;-1.10;86.36
69842;BME280;57138;51.326;-0.068;2024-01-11T00:40:58;101268.31;;;-1.06;86.81
69842;BME280;57138;51.326;-0.068;2024-01-11T00:43:23;101274.69;;;-1.11;86.69
69842;BME280;57138;51.326;-0.068;2024-01-11T00:45:48;101283.91;;;-1.03;86.87
69842;BME280;57138;51.326;-0.068;2024-01-11T00:48:14;101299.47;;;-1.00;86.80
69842;BME280;57138;51.326;-0.068;2024-01-11T00:50:39;101248.03;;;-1.35;87.05
69842;BME280;57138;51.326;-0.068;2024-01-11T00:53:05;101237.22;;;-1.45;87.57
69842;BME280;57138;51.326;-0.068;2024-01-11T00:55:31;101292.38;;;-1.14;87.71
69842;BME280;57138;51.326;-0.068;2024-01-11T00:57:56;101255.59;;;-1.45;87.84
69842;BME280;57138;51.326;-0.068;2024-01-11T01:00:21;101284.44;;;-1.29;87.57
69842;BME280;57138;51.326;-0.068;2024-01-11T01:02:47;101278.53;;;-1.32;88.20
69842;BME280;57138;51.326;-0.068;2024-01-11T01:05:12;101254.97;;;-1.50;88.18
69842;BME280;57138;51.326;-0.068;2024-01-11T01:07:38;101311.16;;;-1.22;87.88
69842;BME280;57138;51.326;-0.068;2024-01-11T01:10:03;101298.56;;;-1.31;88.10
69842;BME280;57138;51.326;-0.068;2024-01-11T01:12:29;101296.44;;;-1.40;88.22
69842;BME280;57138;51.326;-0.068;2024-01-11T01:14:54;101298.16;;;-1.39;88.29
69842;BME280;57138;51.326;-0.068;2024-01-11T01:17:22;101313.63;;;-1.35;88.49
69842;BME280;57138;51.326;-0.068;2024-01-11T01:19:47;101254.47;;;-1.72;88.50
69842;BME280;57138;51.326;-0.068;2024-01-11T01:22:13;101292.81;;;-1.54;88.85
69842;BME280;57138;51.326;-0.068;2024-01-11T01:24:39;101271.91;;;-1.71;88.75
69842;BME280;57138;51.326;-0.068;2024-01-11T01:27:04;101310.94;;;-1.49;89.18
69842;BME280;57138;51.326;-0.068;2024-01-11T01:29:29;101315.72;;;-1.57;89.71
69842;BME280;57138;51.326;-0.068;2024-01-11T01:31:55;101302.59;;;-1.73;89.23
69842;BME280;57138;51.326;-0.068;2024-01-11T01:34:20;101330.63;;;-1.58;89.68
69842;BME280;57138;51.326;-0.068;2024-01-11T01:36:46;101301.94;;;-1.77;90.27
69842;BME280;57138;51.326;-0.068;2024-01-11T01:39:11;101305.53;;;-1.79;89.81
69842;BME280;57138;51.326;-0.068;2024-01-11T01:41:37;101336.03;;;-1.61;90.29
69842;BME280;57138;51.326;-0.068;2024-01-11T01:44:02;101329.59;;;-1.71;90.43
69842;BME280;57138;51.326;-0.068;2024-01-11T01:46:28;101337.06;;;-1.64;90.24
69842;BME280;57138;51.326;-0.068;2024-01-11T01:48:55;101303.09;;;-1.83;90.64
69842;BME280;57138;51.326;-0.068;2024-01-11T01:51:22;101353.31;;;-1.57;90.64
69842;BME280;57138;51.326;-0.068;2024-01-11T01:53:50;101350.78;;;-1.58;90.72
69842;BME280;57138;51.326;-0.068;2024-01-11T01:56:19;101322.38;;;-1.84;91.23
69842;BME280;57138;51.326;-0.068;2024-01-11T01:58:45;101331.59;;;-1.76;90.90
69842;BME280;57138;51.326;-0.068;2024-01-11T02:01:12;101310.59;;;-1.92;91.41
69842;BME280;57138;51.326;-0.068;2024-01-11T02:03:38;101344.72;;;-1.76;91.60
69842;BME280;57138;51.326;-0.068;2024-01-11T02:06:05;101320.09;;;-1.90;91.38
69842;BME280;57138;51.326;-0.068;2024-01-11T02:08:34;101342.41;;;-1.83;91.70
69842;BME280;57138;51.326;-0.068;2024-01-11T02:11:00;101311.84;;;-2.00;92.68
69842;BME280;57138;51.326;-0.068;2024-01-11T02:13:26;101312.25;;;-2.07;92.25
69842;BME280;57138;51.326;-0.068;2024-01-11T02:15:51;101345.97;;;-1.84;92.82
69842;BME280;57138;51.326;-0.068;2024-01-11T02:18:17;101361.31;;;-1.76;92.26
69842;BME280;57138;51.326;-0.068;2024-01-11T02:20:42;101374.25;;;-1.73;92.46
69842;BME280;57138;51.326;-0.068;2024-01-11T02:23:12;101372.56;;;-1.74;92.94
69842;BME280;57138;51.326;-0.068;2024-01-11T02:25:39;101375.25;;;-1.75;93.08
69842;BME280;57138;51.326;-0.068;2024-01-11T02:28:05;101389.38;;;-1.78;93.60
69842;BME280;57138;51.326;-0.068;2024-01-11T02:30:30;101359.41;;;-1.90;93.06
69842;BME280;57138;51.326;-0.068;2024-01-11T02:33:00;101389.28;;;-1.76;93.79
69842;BME280;57138;51.326;-0.068;2024-01-11T02:35:28;101363.72;;;-1.89;93.33
69842;BME280;57138;51.326;-0.068;2024-01-11T02:37:54;101353.63;;;-1.96;93.12
69842;BME280;57138;51.326;-0.068;2024-01-11T02:40:20;101364.81;;;-1.93;93.21
69842;BME280;57138;51.326;-0.068;2024-01-11T02:42:45;101350.56;;;-2.05;93.58
69842;BME280;57138;51.326;-0.068;2024-01-11T02:45:11;101351.31;;;-2.03;93.46
69842;BME280;57138;51.326;-0.068;2024-01-11T02:47:40;101376.88;;;-1.90;93.38
69842;BME280;57138;51.326;-0.068;2024-01-11T02:50:06;101393.34;;;-1.87;94.06
69842;BME280;57138;51.326;-0.068;2024-01-11T02:52:33;101396.56;;;-1.82;93.09
69842;BME280;57138;51.326;-0.068;2024-01-11T02:54:58;101340.47;;;-2.12;93.00
69842;BME280;57138;51.326;-0.068;2024-01-11T02:57:24;101394.00;;;-1.83;93.37
69842;BME280;57138;51.326;-0.068;2024-01-11T02:59:50;101387.38;;;-1.90;93.14
69842;BME280;57138;51.326;-0.068;2024-01-11T03:02:16;101386.69;;;-1.94;92.76
69842;BME280;57138;51.326;-0.068;2024-01-11T03:04:41;101369.91;;;-2.07;92.80
69842;BME280;57138;51.326;-0.068;2024-01-11T03:07:07;101392.09;;;-1.97;93.26
69842;BME280;57138;51.326;-0.068;2024-01-11T03:09:32;101425.22;;;-1.78;93.43
69842;BME280;57138;51.326;-0.068;2024-01-11T03:11:59;101422.63;;;-1.78;92.87
69842;BME280;57138;51.326;-0.068;2024-01-11T03:14:25;101412.44;;;-1.85;92.57
69842;BME280;57138;51.326;-0.068;2024-01-11T03:16:50;101396.50;;;-1.97;92.96
69842;BME280;57138;51.326;-0.068;2024-01-11T03:19:16;101409.84;;;-2.02;93.76
69842;BME280;57138;51.326;-0.068;2024-01-11T03:21:45;101421.69;;;-1.95;93.38
69842;BME280;57138;51.326;-0.068;2024-01-11T03:24:12;101404.22;;;-2.12;93.61
69842;BME280;57138;51.326;-0.068;2024-01-11T03:26:37;101406.75;;;-2.10;94.45
69842;BME280;57138;51.326;-0.068;2024-01-11T03:29:03;101418.47;;;-2.00;94.59
69842;BME280;57138;51.326;-0.068;2024-01-11T03:31:28;101413.84;;;-2.12;94.24
69842;BME280;57138;51.326;-0.068;2024-01-11T03:33:55;101423.09;;;-2.05;94.75
69842;BME280;57138;51.326;-0.068;2024-01-11T03:36:24;101438.22;;;-1.93;94.78
69842;BME280;57138;51.326;-0.068;2024-01-11T03:38:50;101409.03;;;-2.04;94.71
69842;BME280;57138;51.326;-0.068;2024-01-11T03:41:15;101397.19;;;-2.11;94.36
69842;BME280;57138;51.326;-0.068;2024-01-11T03:43:41;101428.63;;;-1.94;95.39
69842;BME280;57138;51.326;-0.068;2024-01-11T03:46:06;101441.28;;;-1.85;95.13
69842;BME280;57138;51.326;-0.068;2024-01-11T03:48:31;101408.75;;;-1.98;94.84
69842;BME280;57138;51.326;-0.068;2024-01-11T03:50:57;101376.63;;;-2.19;95.01
69842;BME280;57138;51.326;-0.068;2024-01-11T03:53:22;101404.59;;;-2.02;94.72
69842;BME280;57138;51.326;-0.068;2024-01-11T03:55:48;101390.63;;;-2.20;94.84
69842;BME280;57138;51.326;-0.068;2024-01-11T03:58:13;101440.75;;;-1.91;95.02
69842;BME280;57138;51.326;-0.068;2024-01-11T04:00:39;101382.84;;;-2.22;95.12
69842;BME280;57138;51.326;-0.068;2024-01-11T04:03:06;101427.25;;;-2.01;95.32
69842;BME280;57138;51.326;-0.068;2024-01-11T04:05:31;101437.72;;;-2.01;94.98
69842;BME280;57138;51.326;-0.068;2024-01-11T04:07:57;101459.09;;;-1.91;95.31
69842;BME280;57138;51.326;-0.068;2024-01-11T04:10:22;101451.47;;;-1.96;94.96
69842;BME280;57138;51.326;-0.068;2024-01-11T04:12:47;101427.88;;;-2.13;95.11
69842;BME280;57138;51.326;-0.068;2024-01-11T04:15:13;101448.50;;;-2.07;95.08
69842;BME280;57138;51.326;-0.068;2024-01-11T04:17:39;101450.97;;;-2.04;94.90
69842;BME280;57138;51.326;-0.068;2024-01-11T04:20:06;101470.13;;;-2.02;94.84
69842;BME280;57138;51.326;-0.068;2024-01-11T04:22:31;101441.22;;;-2.18;94.86
69842;BME280;57138;51.326;-0.068;2024-01-11T04:24:57;101468.25;;;-2.00;94.72
69842;BME280;57138;51.326;-0.068;2024-01-11T04:27:22;101432.19;;;-2.12;94.68
69842;BME280;57138;51.326;-0.068;2024-01-11T04:29:48;101445.28;;;-2.12;94.73
69842;BME280;57138;51.326;-0.068;2024-01-11T04:32:13;101435.09;;;-2.19;95.00
69842;BME280;57138;51.326;-0.068;2024-01-11T04:34:39;101488.00;;;-1.93;94.48
69842;BME280;57138;51.326;-0.068;2024-01-11T04:37:05;101439.44;;;-2.18;94.70
69842;BME280;57138;51.326;-0.068;2024-01-11T04:39:31;101456.44;;;-2.09;95.20
69842;BME280;57138;51.326;-0.068;2024-01-11T04:41:56;101462.56;;;-2.08;95.23
69842;BME280;57138;51.326;-0.068;2024-01-11T04:44:21;101429.84;;;-2.36;94.96
69842;BME280;57138;51.326;-0.068;2024-01-11T04:46:47;101460.47;;;-2.19;95.15
69842;BME280;57138;51.326;-0.068;2024-01-11T04:49:12;101468.25;;;-2.18;95.52
69842;BME280;57138;51.326;-0.068;2024-01-11T04:51:38;101459.94;;;-2.26;95.65
69842;BME280;57138;51.326;-0.068;2024-01-11T04:54:03;101460.22;;;-2.32;95.53
69842;BME280;57138;51.326;-0.068;2024-01-11T04:56:29;101489.06;;;-2.14;95.65
69842;BME280;57138;51.326;-0.068;2024-01-11T04:58:54;101497.00;;;-2.16;95.85
69842;BME280;57138;51.326;-0.068;2024-01-11T05:01:20;101496.16;;;-2.17;95.92
69842;BME280;57138;51.326;-0.068;2024-01-11T05:03:47;101498.00;;;-2.19;95.61
69842;BME280;57138;51.326;-0.068;2024-01-11T05:06:21;101492.91;;;-2.22;96.36
69842;BME280;57138;51.326;-0.068;2024-01-11T05:08:48;101477.00;;;-2.36;95.66
69842;BME280;57138;51.326;-0.068;2024-01-11T05:11:22;101484.56;;;-2.30;96.18
69842;BME280;57138;51.326;-0.068;2024-01-11T05:13:49;101467.03;;;-2.47;96.87
69842;BME280;57138;51.326;-0.068;2024-01-11T05:16:23;101500.28;;;-2.30;96.45
69842;BME280;57138;51.326;-0.068;2024-01-11T05:18:49;101503.69;;;-2.28;96.80
69842;BME280;57138;51.326;-0.068;2024-01-11T05:21:15;101486.88;;;-2.41;96.15
69842;BME280;57138;51.326;-0.068;2024-01-11T05:23:41;101493.63;;;-2.37;96.37
69842;BME280;57138;51.326;-0.068;2024-01-11T05:26:08;101479.44;;;-2.50;97.20
69842;BME280;57138;51.326;-0.068;2024-01-11T05:28:33;101499.31;;;-2.46;96.60
69842;BME280;57138;51.326;-0.068;2024-01-11T05:30:59;101484.84;;;-2.54;97.22
69842;BME280;57138;51.326;-0.068;2024-01-11T05:33:24;101451.03;;;-2.77;97.38
69842;BME280;57138;51.326;-0.068;2024-01-11T05:35:49;101496.34;;;-2.58;97.66
69842;BME280;57138;51.326;-0.068;2024-01-11T05:38:15;101522.53;;;-2.39;97.42
69842;BME280;57138;51.326;-0.068;2024-01-11T05:40:41;101517.44;;;-2.42;96.74
69842;BME280;57138;51.326;-0.068;2024-01-11T05:43:06;101489.41;;;-2.59;97.35
69842;BME280;57138;51.326;-0.068;2024-01-11T05:45:31;101477.69;;;-2.69;97.51
69842;BME280;57138;51.326;-0.068;2024-01-11T05:47:59;101529.47;;;-2.38;97.77
69842;BME280;57138;51.326;-0.068;2024-01-11T05:50:24;101481.81;;;-2.63;98.09
69842;BME280;57138;51.326;-0.068;2024-01-11T05:52:50;101514.47;;;-2.53;97.13
69842;BME280;57138;51.326;-0.068;2024-01-11T05:55:17;101521.28;;;-2.49;98.02
69842;BME280;57138;51.326;-0.068;2024-01-11T05:57:42;101527.97;;;-2.43;98.10
69842;BME280;57138;51.326;-0.068;2024-01-11T06:00:08;101505.28;;;-2.62;97.87
69842;BME280;57138;51.326;-0.068;2024-01-11T06:02:33;101480.59;;;-2.75;98.58
69842;BME280;57138;51.326;-0.068;2024-01-11T06:04:59;101480.47;;;-2.72;98.67
69842;BME280;57138;51.326;-0.068;2024-01-11T06:07:24;101503.72;;;-2.66;98.61
69842;BME280;57138;51.326;-0.068;2024-01-11T06:09:50;101511.00;;;-2.54;99.13
69842;BME280;57138;51.326;-0.068;2024-01-11T06:12:15;101528.25;;;-2.49;98.57
69842;BME280;57138;51.326;-0.068;2024-01-11T06:14:41;101529.34;;;-2.54;99.03
69842;BME280;57138;51.326;-0.068;2024-01-11T06:17:07;101535.13;;;-2.47;99.30
69842;BME280;57138;51.326;-0.068;2024-01-11T06:19:36;101517.44;;;-2.61;99.24
69842;BME280;57138;51.326;-0.068;2024-01-11T06:22:01;101553.25;;;-2.42;99.43
69842;BME280;57138;51.326;-0.068;2024-01-11T06:24:27;101550.56;;;-2.41;99.60
69842;BME280;57138;51.326;-0.068;2024-01-11T06:26:52;101521.91;;;-2.63;99.94
69842;BME280;57138;51.326;-0.068;2024-01-11T06:29:17;101539.81;;;-2.54;100.00
69842;BME280;57138;51.326;-0.068;2024-01-11T06:31:43;101570.47;;;-2.37;100.00
69842;BME280;57138;51.326;-0.068;2024-01-11T06:34:08;101573.09;;;-2.37;100.00
69842;BME280;57138;51.326;-0.068;2024-01-11T06:36:34;101555.41;;;-2.50;100.00
69842;BME280;57138;51.326;-0.068;2024-01-11T06:38:59;101556.16;;;-2.48;99.82
69842;BME280;57138;51.326;-0.068;2024-01-11T06:41:24;101570.69;;;-2.41;100.00
69842;BME280;57138;51.326;-0.068;2024-01-11T06:43:50;101550.44;;;-2.57;100.00
69842;BME280;57138;51.326;-0.068;2024-01-11T06:46:20;101559.06;;;-2.55;100.00
69842;BME280;57138;51.326;-0.068;2024-01-11T06:48:46;101545.19;;;-2.57;100.00
69842;BME280;57138;51.326;-0.068;2024-01-11T06:51:15;101581.84;;;-2.38;100.00
69842;BME280;57138;51.326;-0.068;2024-01-11T06:53:41;101572.44;;;-2.42;100.00
69842;BME280;57138;51.326;-0.068;2024-01-11T06:56:14;101579.31;;;-2.39;100.00
69842;BME280;57138;51.326;-0.068;2024-01-11T06:58:40;101587.03;;;-2.36;100.00
69842;BME280;57138;51.326;-0.068;2024-01-11T07:01:05;101594.75;;;-2.33;100.00
69842;BME280;57138;51.326;-0.068;2024-01-11T07:03:31;101571.72;;;-2.45;100.00
69842;BME280;57138;51.326;-0.068;2024-01-11T07:05:57;101587.03;;;-2.36;100.00
69842;BME280;57138;51.326;-0.068;2024-01-11T07:08:22;101557.50;;;-2.59;100.00
69842;BME280;57138;51.326;-0.068;2024-01-11T07:10:48;101567.53;;;-2.49;100.00
69842;BME280;57138;51.326;-0.068;2024-01-11T07:13:13;101581.16;;;-2.41;100.00
69842;BME280;57138;51.326;-0.068;2024-01-11T07:15:42;101569.41;;;-2.51;100.00
69842;BME280;57138;51.326;-0.068;2024-01-11T07:18:07;101610.03;;;-2.24;100.00
69842;BME280;57138;51.326;-0.068;2024-01-11T07:20:34;101571.88;;;-2.48;100.00
69842;BME280;57138;51.326;-0.068;2024-01-11T07:22:59;101617.97;;;-2.25;100.00
69842;BME280;57138;51.326;-0.068;2024-01-11T07:25:25;101582.22;;;-2.45;100.00
69842;BME280;57138;51.326;-0.068;2024-01-11T07:27:50;101622.22;;;-2.23;100.00
69842;BME280;57138;51.326;-0.068;2024-01-11T07:30:17;101621.28;;;-2.22;100.00
69842;BME280;57138;51.326;-0.068;2024-01-11T07:32:43;101605.28;;;-2.35;100.00
69842;BME280;57138;51.326;-0.068;2024-01-11T07:35:09;101625.63;;;-2.21;100.00
69842;BME280;57138;51.326;-0.068;2024-01-11T07:37:36;101630.72;;;-2.18;100.00
69842;BME280;57138;51.326;-0.068;2024-01-11T07:40:05;101606.13;;;-2.34;100.00
69842;BME280;57138;51.326;-0.068;2024-01-11T07:42:38;101595.94;;;-2.40;100.00
69842;BME280;57138;51.326;-0.068;2024-01-11T07:45:09;101628.22;;;-2.21;100.00
69842;BME280;57138;51.326;-0.068;2024-01-11T07:47:37;101621.56;;;-2.28;100.00
69842;BME280;57138;51.326;-0.068;2024-01-11T07:50:06;101586.69;;;-2.47;100.00
69842;BME280;57138;51.326;-0.068;2024-01-11T07:52:35;101620.72;;;-2.28;100.00
69842;BME280;57138;51.326;-0.068;2024-01-11T07:55:02;101605.56;;;-2.41;100.00
69842;BME280;57138;51.326;-0.068;2024-01-11T07:57:36;101632.63;;;-2.21;100.00
69842;BME280;57138;51.326;-0.068;2024-01-11T08:00:02;101624.47;;;-2.34;100.00
69842;BME280;57138;51.326;-0.068;2024-01-11T08:02:30;101624.75;;;-2.40;100.00
69842;BME280;57138;51.326;-0.068;2024-01-11T08:04:55;101626.75;;;-2.45;100.00
69842;BME280;57138;51.326;-0.068;2024-01-11T08:07:21;101662.72;;;-2.30;100.00
69842;BME280;57138;51.326;-0.068;2024-01-11T08:09:47;101664.50;;;-2.30;100.00
69842;BME280;57138;51.326;-0.068;2024-01-11T08:12:13;101659.31;;;-2.32;100.00
69842;BME280;57138;51.326;-0.068;2024-01-11T08:14:39;101654.50;;;-2.41;100.00
69842;BME280;57138;51.326;-0.068;2024-01-11T08:17:07;101635.00;;;-2.55;100.00
69842;BME280;57138;51.326;-0.068;2024-01-11T08:19:33;101653.50;;;-2.39;100.00
69842;BME280;57138;51.326;-0.068;2024-01-11T08:21:59;101673.06;;;-2.27;100.00
69842;BME280;57138;51.326;-0.068;2024-01-11T08:24:25;101655.34;;;-2.41;100.00
69842;BME280;57138;51.326;-0.068;2024-01-11T08:26:52;101685.75;;;-2.18;100.00
69842;BME280;57138;51.326;-0.068;2024-01-11T08:29:17;101693.59;;;-2.18;100.00
69842;BME280;57138;51.326;-0.068;2024-01-11T08:31:45;101698.06;;;-2.20;100.00
69842;BME280;57138;51.326;-0.068;2024-01-11T08:34:11;101671.34;;;-2.28;100.00
69842;BME280;57138;51.326;-0.068;2024-01-11T08:36:37;101647.56;;;-2.42;100.00
69842;BME280;57138;51.326;-0.068;2024-01-11T08:39:04;101666.25;;;-2.31;100.00
69842;BME280;57138;51.326;-0.068;2024-01-11T08:41:35;101668.72;;;-2.28;100.00
69842;BME280;57138;51.326;-0.068;2024-01-11T08:44:03;101687.59;;;-2.20;100.00
69842;BME280;57138;51.326;-0.068;2024-01-11T08:46:31;101678.44;;;-2.30;100.00
69842;BME280;57138;51.326;-0.068;2024-01-11T08:48:59;101710.91;;;-2.13;100.00
69842;BME280;57138;51.326;-0.068;2024-01-11T08:51:24;101713.44;;;-2.12;100.00
69842;BME280;57138;51.326;-0.068;2024-01-11T08:53:50;101721.06;;;-2.07;100.00
69842;BME280;57138;51.326;-0.068;2024-01-11T08:56:15;101711.59;;;-2.10;100.00
69842;BME280;57138;51.326;-0.068;2024-01-11T08:58:42;101704.91;;;-2.17;100.00
69842;BME280;57138;51.326;-0.068;2024-01-11T09:01:08;101730.50;;;-2.03;100.00
69842;BME280;57138;51.326;-0.068;2024-01-11T09:03:37;101720.31;;;-2.09;100.00
69842;BME280;57138;51.326;-0.068;2024-01-11T09:06:03;101748.28;;;-1.91;100.00
69842;BME280;57138;51.326;-0.068;2024-01-11T09:08:29;101705.34;;;-2.07;100.00
69842;BME280;57138;51.326;-0.068;2024-01-11T09:10:58;101717.13;;;-1.97;100.00
69842;BME280;57138;51.326;-0.068;2024-01-11T09:13:25;101744.34;;;-1.81;100.00
69842;BME280;57138;51.326;-0.068;2024-01-11T09:15:53;101727.19;;;-1.88;100.00
69842;BME280;57138;51.326;-0.068;2024-01-11T09:18:20;101718.69;;;-1.93;100.00
69842;BME280;57138;51.326;-0.068;2024-01-11T09:20:46;101749.94;;;-1.69;100.00
69842;BME280;57138;51.326;-0.068;2024-01-11T09:23:12;101734.00;;;-1.84;100.00
69842;BME280;57138;51.326;-0.068;2024-01-11T09:25:38;101733.84;;;-1.81;100.00
69842;BME280;57138;51.326;-0.068;2024-01-11T09:28:04;101742.34;;;-1.75;100.00
69842;BME280;57138;51.326;-0.068;2024-01-11T09:30:30;101730.38;;;-1.81;100.00
69842;BME280;57138;51.326;-0.068;2024-01-11T09:32:56;101754.13;;;-1.65;100.00
69842;BME280;57138;51.326;-0.068;2024-01-11T09:35:22;101733.56;;;-1.74;100.00
69842;BME280;57138;51.326;-0.068;2024-01-11T09:37:51;101764.22;;;-1.57;100.00
69842;BME280;57138;51.326;-0.068;2024-01-11T09:40:18;101758.75;;;-1.53;100.00
69842;BME280;57138;51.326;-0.068;2024-01-11T09:42:43;101745.16;;;-1.61;100.00
69842;BME280;57138;51.326;-0.068;2024-01-11T09:45:13;101771.59;;;-1.47;100.00
69842;BME280;57138;51.326;-0.068;2024-01-11T09:47:41;101775.50;;;-1.36;100.00
69842;BME280;57138;51.326;-0.068;2024-01-11T09:50:09;101761.91;;;-1.45;100.00
69842;BME280;57138;51.326;-0.068;2024-01-11T09:52:36;101775.91;;;-1.27;100.00
69842;BME280;57138;51.326;-0.068;2024-01-11T09:55:02;101779.09;;;-1.20;100.00
69842;BME280;57138;51.326;-0.068;2024-01-11T09:57:31;101772.75;;;-1.16;100.00
69842;BME280;57138;51.326;-0.068;2024-01-11T10:00:03;101765.81;;;-1.17;100.00
69842;BME280;57138;51.326;-0.068;2024-01-11T10:02:32;101763.13;;;-1.15;100.00
69842;BME280;57138;51.326;-0.068;2024-01-11T10:04:58;101757.88;;;-1.15;100.00
69842;BME280;57138;51.326;-0.068;2024-01-11T10:07:24;101785.75;;;-0.95;100.00
69842;BME280;57138;51.326;-0.068;2024-01-11T10:09:50;101794.91;;;-0.85;100.00
69842;BME280;57138;51.326;-0.068;2024-01-11T10:12:17;101772.81;;;-0.81;100.00
69842;BME280;57138;51.326;-0.068;2024-01-11T10:14:46;101767.72;;;-0.84;100.00
69842;BME280;57138;51.326;-0.068;2024-01-11T10:17:12;101784.72;;;-0.56;100.00
69842;BME280;57138;51.326;-0.068;2024-01-11T10:19:38;101780.38;;;-0.57;100.00
69842;BME280;57138;51.326;-0.068;2024-01-11T10:22:03;101754.88;;;-0.73;100.00
69842;BME280;57138;51.326;-0.068;2024-01-11T10:24:30;101746.41;;;-0.78;100.00
69842;BME280;57138;51.326;-0.068;2024-01-11T10:26:56;101790.13;;;-0.42;100.00
69842;BME280;57138;51.326;-0.068;2024-01-11T10:29:22;101769.41;;;-0.48;100.00
69842;BME280;57138;51.326;-0.068;2024-01-11T10:31:49;101792.72;;;-0.24;100.00
69842;BME280;57138;51.326;-0.068;2024-01-11T10:34:16;101776.94;;;-0.24;100.00
69842;BME280;57138;51.326;-0.068;2024-01-11T10:36:42;101800.47;;;-0.05;100.00
69842;BME280;57138;51.326;-0.068;2024-01-11T10:39:10;101799.41;;;-0.01;100.00
69842;BME280;57138;51.326;-0.068;2024-01-11T10:41:40;101782.16;;;-0.07;100.00
69842;BME280;57138;51.326;-0.068;2024-01-11T10:44:18;101787.53;;;0.08;100.00
69842;BME280;57138;51.326;-0.068;2024-01-11T10:46:45;101799.44;;;0.15;100.00
69842;BME280;57138;51.326;-0.068;2024-01-11T10:49:11;101801.56;;;0.24;100.00
69842;BME280;57138;51.326;-0.068;2024-01-11T10:51:39;101770.50;;;0.15;100.00
69842;BME280;57138;51.326;-0.068;2024-01-11T10:54:06;101785.63;;;0.27;100.00
69842;BME280;57138;51.326;-0.068;2024-01-11T10:56:33;101780.59;;;0.23;100.00
69842;BME280;57138;51.326;-0.068;2024-01-11T10:59:00;101771.72;;;0.25;100.00
69842;BME280;57138;51.326;-0.068;2024-01-11T11:01:26;101784.19;;;0.38;100.00
69842;BME280;57138;51.326;-0.068;2024-01-11T11:03:52;101797.78;;;0.46;100.00
69842;BME280;57138;51.326;-0.068;2024-01-11T11:06:20;101792.94;;;0.54;100.00
69842;BME280;57138;51.326;-0.068;2024-01-11T11:08:47;101825.81;;;0.79;100.00
69842;BME280;57138;51.326;-0.068;2024-01-11T11:11:14;101812.88;;;0.74;100.00
69842;BME280;57138;51.326;-0.068;2024-01-11T11:13:41;101814.59;;;0.91;100.00
69842;BME280;57138;51.326;-0.068;2024-01-11T11:16:08;101809.31;;;0.91;100.00
69842;BME280;57138;51.326;-0.068;2024-01-11T11:18:33;101788.09;;;0.78;100.00
69842;BME280;57138;51.326;-0.068;2024-01-11T11:21:01;101819.75;;;1.08;100.00
69842;BME280;57138;51.326;-0.068;2024-01-11T11:23:27;101792.91;;;1.02;100.00
69842;BME280;57138;51.326;-0.068;2024-01-11T11:25:54;101838.97;;;1.41;100.00
69842;BME280;57138;51.326;-0.068;2024-01-11T11:28:22;101814.41;;;1.40;100.00
69842;BME280;57138;51.326;-0.068;2024-01-11T11:30:49;101831.00;;;1.57;100.00
69842;BME280;57138;51.326;-0.068;2024-01-11T11:33:19;101818.56;;;1.59;100.00
69842;BME280;57138;51.326;-0.068;2024-01-11T11:35:50;101832.56;;;1.75;100.00
69842;BME280;57138;51.326;-0.068;2024-01-11T11:38:22;101843.50;;;1.84;100.00
69842;BME280;57138;51.326;-0.068;2024-01-11T11:40:52;101835.41;;;1.87;100.00
69842;BME280;57138;51.326;-0.068;2024-01-11T11:43:18;101838.81;;;1.89;100.00
69842;BME280;57138;51.326;-0.068;2024-01-11T11:45:48;101839.38;;;1.94;100.00
69842;BME280;57138;51.326;-0.068;2024-01-11T11:51:16;101847.47;;;2.05;100.00
69842;BME280;57138;51.326;-0.068;2024-01-11T11:53:45;101848.06;;;2.10;100.00
69842;BME280;57138;51.326;-0.068;2024-01-11T11:56:11;101822.13;;;1.88;100.00
69842;BME280;57138;51.326;-0.068;2024-01-11T11:58:37;101841.75;;;2.13;100.00
69842;BME280;57138;51.326;-0.068;2024-01-11T12:01:04;101843.34;;;2.15;100.00
69842;BME280;57138;51.326;-0.068;2024-01-11T12:03:30;101845.44;;;2.25;99.92
69842;BME280;57138;51.326;-0.068;2024-01-11T12:05:57;101843.53;;;2.27;100.00
69842;BME280;57138;51.326;-0.068;2024-01-11T12:08:23;101804.81;;;1.98;100.00
69842;BME280;57138;51.326;-0.068;2024-01-11T12:10:48;101800.44;;;1.97;100.00
69842;BME280;57138;51.326;-0.068;2024-01-11T12:13:15;101798.78;;;1.96;100.00
69842;BME280;57138;51.326;-0.068;2024-01-11T12:15:41;101793.69;;;1.93;99.41
69842;BME280;57138;51.326;-0.068;2024-01-11T12:18:11;101838.06;;;2.30;99.57
69842;BME280;57138;51.326;-0.068;2024-01-11T12:20:36;101814.13;;;2.19;99.39
69842;BME280;57138;51.326;-0.068;2024-01-11T12:23:02;101828.94;;;2.36;99.45
69842;BME280;57138;51.326;-0.068;2024-01-11T12:25:28;101832.22;;;2.39;99.94
69842;BME280;57138;51.326;-0.068;2024-01-11T12:27:57;101831.84;;;2.45;99.16
69842;BME280;57138;51.326;-0.068;2024-01-11T12:30:24;101806.59;;;2.27;99.31
69842;BME280;57138;51.326;-0.068;2024-01-11T12:32:50;101847.69;;;2.45;97.87
69842;BME280;57138;51.326;-0.068;2024-01-11T12:35:16;101826.56;;;2.31;98.83
69842;BME280;57138;51.326;-0.068;2024-01-11T12:38:05;101844.09;;;2.46;98.72